createdAt,value
2019-04-01T00:00:42.623Z,32.83
2019-04-01T00:03:16.276Z,32.90
2019-04-01T00:05:50.087Z,36.53
2019-04-01T00:08:23.755Z,41.50
2019-04-01T00:10:57.542Z,39.23
2019-04-01T00:13:31.203Z,42.03
2019-04-01T00:16:05.041Z,45.67
2019-04-01T00:18:38.833Z,50.40
2019-04-01T00:21:12.521Z,45.47
2019-04-01T00:23:46.317Z,47.53
2019-04-01T00:26:20.010Z,38.30
2019-04-01T00:28:53.746Z,38.57
2019-04-01T00:31:27.351Z,39.80
2019-04-01T00:34:01.133Z,43.40
2019-04-01T00:36:34.742Z,47.47
2019-04-01T00:39:08.701Z,42.57
2019-04-01T00:41:44.129Z,42.67
2019-04-01T00:44:17.772Z,44.07
2019-04-01T00:46:51.440Z,37.63
2019-04-01T00:49:25.205Z,41.73
2019-04-01T00:51:58.976Z,38.10
2019-04-01T00:54:32.678Z,39.50
2019-04-01T00:57:06.320Z,47.63
2019-04-01T00:59:40.027Z,44.27
2019-04-01T01:02:13.686Z,41.60
2019-04-01T01:04:47.554Z,49.03
2019-04-01T01:07:21.341Z,54.73
2019-04-01T01:09:55.136Z,49.43
2019-04-01T01:16:15.646Z,49.73
2019-04-01T01:18:49.223Z,32.63
2019-04-01T01:21:23.279Z,34.43
2019-04-01T01:23:56.988Z,36.70
2019-04-01T01:26:30.691Z,34.90
2019-04-01T01:32:41.872Z,38.47
2019-04-01T01:35:15.660Z,39.03
2019-04-01T01:37:49.364Z,33.50
2019-04-01T01:40:23.036Z,35.63
2019-04-01T01:42:58.161Z,37.37
2019-04-01T01:45:31.874Z,35.23
2019-04-01T01:48:05.536Z,31.00
2019-04-01T01:50:39.340Z,26.43
2019-04-01T01:53:13.028Z,30.13
2019-04-01T01:55:47.010Z,35.40
2019-04-01T01:58:20.756Z,31.97
2019-04-01T02:00:56.132Z,31.20
2019-04-01T02:03:29.884Z,30.90
2019-04-01T02:06:03.818Z,32.90
2019-04-01T02:08:37.538Z,32.67
2019-04-01T02:11:11.230Z,28.77
2019-04-01T02:13:44.898Z,27.50
2019-04-01T02:16:18.674Z,28.63
2019-04-01T02:18:52.666Z,29.07
2019-04-01T02:21:27.174Z,25.40
2019-04-01T02:24:00.894Z,27.33
2019-04-01T02:26:34.617Z,23.10
2019-04-01T02:29:08.300Z,25.33
2019-04-01T02:31:41.984Z,27.47
2019-04-01T02:34:15.700Z,22.10
2019-04-01T02:36:49.436Z,27.83
2019-04-01T02:39:23.479Z,24.30
2019-04-01T02:41:57.313Z,25.50
2019-04-01T02:44:31.008Z,23.37
2019-04-01T02:47:04.873Z,25.73
2019-04-01T02:49:38.633Z,24.53
2019-04-01T02:52:12.393Z,19.63
2019-04-01T02:54:46.043Z,18.97
2019-04-01T02:57:19.641Z,21.60
2019-04-01T02:59:53.371Z,23.17
2019-04-01T03:02:27.088Z,25.53
2019-04-01T03:05:00.726Z,26.20
2019-04-01T03:07:34.420Z,29.93
2019-04-01T03:10:08.234Z,34.33
2019-04-01T03:12:41.958Z,34.13
2019-04-01T03:15:15.793Z,26.43
2019-04-01T03:17:49.479Z,24.93
2019-04-01T03:20:23.180Z,23.83
2019-04-01T03:22:56.843Z,30.70
2019-04-01T03:25:30.625Z,26.90
2019-04-01T03:31:41.739Z,26.70
2019-04-01T03:34:15.410Z,26.47
2019-04-01T03:36:49.196Z,27.53
2019-04-01T03:39:23.168Z,25.70
2019-04-01T03:41:57.008Z,27.43
2019-04-01T03:48:16.816Z,22.63
2019-04-01T03:50:50.445Z,24.50
2019-04-01T03:53:24.143Z,25.43
2019-04-01T03:55:57.899Z,20.00
2019-04-01T03:58:31.530Z,27.13
2019-04-01T04:01:05.454Z,25.70
2019-04-01T04:03:39.153Z,28.20
2019-04-01T04:06:12.965Z,22.47
2019-04-01T04:08:46.598Z,26.03
2019-04-01T04:11:20.326Z,23.33
2019-04-01T04:13:54.103Z,24.80
2019-04-01T04:16:27.854Z,30.07
2019-04-01T04:19:01.670Z,35.20
2019-04-01T04:21:35.476Z,40.30
2019-04-01T04:24:10.713Z,38.93
2019-04-01T04:26:44.422Z,44.20
2019-04-01T04:29:18.588Z,38.57
2019-04-01T04:31:52.270Z,35.63
2019-04-01T04:34:25.925Z,33.90
2019-04-01T04:36:59.601Z,29.77
2019-04-01T04:39:33.345Z,30.87
2019-04-01T04:42:07.059Z,38.20
2019-04-01T04:44:40.838Z,37.07
2019-04-01T04:47:14.870Z,32.43
2019-04-01T04:49:48.799Z,34.93
2019-04-01T04:52:22.491Z,31.47
2019-04-01T04:54:56.409Z,27.90
2019-04-01T04:57:30.096Z,31.87
2019-04-01T05:00:05.512Z,33.63
2019-04-01T05:02:39.192Z,31.50
2019-04-01T05:05:12.947Z,37.13
2019-04-01T05:07:46.550Z,31.20
2019-04-01T05:10:20.362Z,34.97
2019-04-01T05:12:54.062Z,39.03
2019-04-01T05:15:27.808Z,35.17
2019-04-01T05:18:01.576Z,34.27
2019-04-01T05:20:38.155Z,37.80
2019-04-01T05:23:13.576Z,39.83
2019-04-01T05:25:48.344Z,35.77
2019-04-01T05:28:23.198Z,39.50
2019-04-01T05:30:59.489Z,34.60
2019-04-01T05:33:36.286Z,27.67
2019-04-01T05:36:10.460Z,31.77
2019-04-01T05:38:45.764Z,33.67
2019-04-01T05:41:19.813Z,36.70
2019-04-01T05:47:36.224Z,48.13
2019-04-01T05:50:09.952Z,56.67
2019-04-01T05:52:43.744Z,55.60
2019-04-01T05:55:17.506Z,55.83
2019-04-01T05:57:51.258Z,61.50
2019-04-01T06:04:01.905Z,48.30
2019-04-01T06:06:35.784Z,46.93
2019-04-01T06:09:09.483Z,41.90
2019-04-01T06:11:43.287Z,47.63
2019-04-01T06:14:17.238Z,47.57
2019-04-01T06:16:51.311Z,45.03
2019-04-01T06:19:25.050Z,36.73
2019-04-01T06:21:59.846Z,44.60
2019-04-01T06:24:33.818Z,37.87
2019-04-01T06:27:08.725Z,42.97
2019-04-01T06:29:42.821Z,34.00
2019-04-01T06:32:16.624Z,30.27
2019-04-01T06:34:53.010Z,28.10
2019-04-01T06:37:25.954Z,27.67
2019-04-01T06:39:59.965Z,28.27
2019-04-01T06:42:33.797Z,22.00
2019-04-01T06:45:07.695Z,20.07
2019-04-01T06:47:41.484Z,20.53
2019-04-01T06:50:15.383Z,17.53
2019-04-01T06:52:49.173Z,14.80
2019-04-01T06:55:23.049Z,12.73
2019-04-01T06:57:56.843Z,13.67
2019-04-01T07:00:30.626Z,12.20
2019-04-01T07:03:04.465Z,15.63
2019-04-01T07:05:38.237Z,13.53
2019-04-01T07:08:12.040Z,11.07
2019-04-01T07:10:45.880Z,10.53
2019-04-01T07:13:20.065Z,9.05
2019-04-01T07:15:53.763Z,8.75
2019-04-01T07:18:27.628Z,10.30
2019-04-01T07:21:01.379Z,9.53
2019-04-01T07:23:35.310Z,7.62
2019-04-01T07:26:09.291Z,7.40
2019-04-01T07:28:43.025Z,6.97
2019-04-01T07:31:16.791Z,8.10
2019-04-01T07:33:50.641Z,10.75
2019-04-01T07:36:24.860Z,8.35
2019-04-01T07:38:58.666Z,8.30
2019-04-01T07:41:32.573Z,13.50
2019-04-01T07:44:06.703Z,12.27
2019-04-01T07:46:40.421Z,12.77
2019-04-01T07:49:14.443Z,13.73
2019-04-01T07:51:48.363Z,11.83
2019-04-01T07:54:22.268Z,8.17
2019-04-01T07:56:56.332Z,7.90
2019-04-01T08:02:13.195Z,7.37
2019-04-01T08:04:47.228Z,10.80
2019-04-01T08:07:21.851Z,4.80
2019-04-01T08:09:55.861Z,6.17
2019-04-01T08:12:30.391Z,4.63
2019-04-01T08:18:50.485Z,4.03
2019-04-01T08:21:24.161Z,11.77
2019-04-01T08:23:57.893Z,7.13
2019-04-01T08:26:31.635Z,5.93
2019-04-01T08:29:05.503Z,4.97
2019-04-01T08:35:16.579Z,4.97
2019-04-01T08:37:50.221Z,4.53
2019-04-01T08:40:23.899Z,3.57
2019-04-01T08:42:57.521Z,3.17
2019-04-01T08:45:31.308Z,3.70
2019-04-01T08:48:05.043Z,2.80
2019-04-01T08:50:38.826Z,4.10
2019-04-01T08:53:12.484Z,4.80
2019-04-01T08:55:46.282Z,8.40
2019-04-01T08:58:20.388Z,5.97
2019-04-01T09:00:54.130Z,6.97
2019-04-01T09:03:27.817Z,5.50
2019-04-01T09:06:01.760Z,6.07
2019-04-01T09:08:36.905Z,6.17
2019-04-01T09:11:10.689Z,3.77
2019-04-01T09:13:44.426Z,5.73
2019-04-01T09:16:18.887Z,5.53
2019-04-01T09:18:52.549Z,4.57
2019-04-01T09:21:26.359Z,6.03
2019-04-01T09:24:00.117Z,7.33
2019-04-01T09:26:33.891Z,5.23
2019-04-01T09:29:08.780Z,4.97
2019-04-01T09:31:42.866Z,5.40
2019-04-01T09:34:16.563Z,4.07
2019-04-01T09:36:50.539Z,4.67
2019-04-01T09:39:24.692Z,8.27
2019-04-01T09:41:58.383Z,9.13
2019-04-01T09:44:36.900Z,12.13
2019-04-01T09:47:08.439Z,8.10
2019-04-01T09:49:42.427Z,5.23
2019-04-01T09:52:16.725Z,2.77
2019-04-01T09:54:50.512Z,4.97
2019-04-01T09:57:24.382Z,4.87
2019-04-01T09:59:58.217Z,5.80
2019-04-01T10:02:32.483Z,6.90
2019-04-01T10:05:08.426Z,13.03
2019-04-01T10:07:42.179Z,9.47
2019-04-01T10:10:16.044Z,5.93
2019-04-01T10:12:49.851Z,7.87
2019-04-01T10:19:00.812Z,4.23
2019-04-01T10:21:35.619Z,10.47
2019-04-01T10:24:09.337Z,7.40
2019-04-01T10:26:43.132Z,3.50
2019-04-01T10:29:16.922Z,2.73
2019-04-01T10:35:36.546Z,6.17
2019-04-01T10:38:10.229Z,7.80
2019-04-01T10:40:43.904Z,2.00
2019-04-01T10:43:17.674Z,2.63
2019-04-01T10:45:51.538Z,3.40
2019-04-01T10:48:25.589Z,1.50
2019-04-01T10:50:59.317Z,1.53
2019-04-01T10:53:33.441Z,4.07
2019-04-01T10:56:07.185Z,2.57
2019-04-01T10:58:41.711Z,4.43
2019-04-01T11:01:15.617Z,3.80
2019-04-01T11:03:49.443Z,1.40
2019-04-01T11:06:23.462Z,6.40
2019-04-01T11:08:57.275Z,7.53
2019-04-01T11:11:31.061Z,7.53
2019-04-01T11:14:04.958Z,4.37
2019-04-01T11:16:38.691Z,2.03
2019-04-01T11:19:12.876Z,5.40
2019-04-01T11:21:46.671Z,4.10
2019-04-01T11:24:20.812Z,2.77
2019-04-01T11:26:54.511Z,3.97
2019-04-01T11:29:28.144Z,4.10
2019-04-01T11:32:02.023Z,4.13
2019-04-01T11:34:35.715Z,4.93
2019-04-01T11:37:09.463Z,4.93
2019-04-01T11:39:43.431Z,4.03
2019-04-01T11:42:20.361Z,4.87
2019-04-01T11:44:54.252Z,5.50
2019-04-01T11:47:28.747Z,5.83
2019-04-01T11:50:02.557Z,4.30
2019-04-01T11:52:37.236Z,2.87
2019-04-01T11:55:12.695Z,3.00
2019-04-01T11:57:47.982Z,9.93
2019-04-01T12:00:21.716Z,3.60
2019-04-01T12:02:55.417Z,4.57
2019-04-01T12:05:29.639Z,4.83
2019-04-01T12:08:03.488Z,5.47
2019-04-01T12:10:37.139Z,4.90
2019-04-01T12:13:10.755Z,1.77
2019-04-01T12:15:44.807Z,2.37
2019-04-01T12:18:18.534Z,2.33
2019-04-01T12:20:52.274Z,2.90
2019-04-01T12:23:25.918Z,5.73
2019-04-01T12:26:14.382Z,4.77
2019-04-01T12:28:37.959Z,3.33
2019-04-01T12:34:02.926Z,7.53
2019-04-01T12:36:36.604Z,4.97
2019-04-01T12:39:11.003Z,2.30
2019-04-01T12:41:44.780Z,14.93
2019-04-01T12:44:18.458Z,3.77
2019-04-01T12:50:29.768Z,5.93
2019-04-01T12:53:03.487Z,3.27
2019-04-01T12:55:37.412Z,4.83
2019-04-01T12:58:11.820Z,1.77
2019-04-01T13:00:46.231Z,3.70
2019-04-01T13:07:06.870Z,1.57
2019-04-01T13:09:40.586Z,2.67
2019-04-01T13:12:14.383Z,2.77
2019-04-01T13:14:48.022Z,5.63
2019-04-01T13:17:21.996Z,3.07
2019-04-01T13:19:55.713Z,3.33
2019-04-01T13:22:29.482Z,2.40
2019-04-01T13:25:05.627Z,3.07
2019-04-01T13:27:38.750Z,5.53
2019-04-01T13:30:12.825Z,8.53
2019-04-01T13:32:46.390Z,4.63
2019-04-01T13:35:20.152Z,3.47
2019-04-01T13:37:54.252Z,4.17
2019-04-01T13:40:27.966Z,7.00
2019-04-01T13:43:04.421Z,5.83
2019-04-01T13:45:37.347Z,3.33
2019-04-01T13:48:11.236Z,4.10
2019-04-01T13:50:45.241Z,1.90
2019-04-01T13:53:19.522Z,2.10
2019-04-01T13:55:54.902Z,4.27
2019-04-01T13:58:28.702Z,3.13
2019-04-01T14:01:02.524Z,6.67
2019-04-01T14:03:36.252Z,3.60
2019-04-01T14:06:09.976Z,4.80
2019-04-01T14:08:43.692Z,2.47
2019-04-01T14:11:17.490Z,3.07
2019-04-01T14:13:51.092Z,4.33
2019-04-01T14:16:24.776Z,3.93
2019-04-01T14:18:58.757Z,4.00
2019-04-01T14:21:32.388Z,4.93
2019-04-01T14:24:06.072Z,2.50
2019-04-01T14:26:40.939Z,5.33
2019-04-01T14:29:16.498Z,5.13
2019-04-01T14:35:17.050Z,1.73
2019-04-01T14:37:53.750Z,4.73
2019-04-01T14:40:27.492Z,2.57
2019-04-01T14:43:01.331Z,1.00
2019-04-01T14:45:35.469Z,4.23
2019-04-01T14:51:52.105Z,9.13
2019-04-01T14:54:25.837Z,3.13
2019-04-01T14:56:59.783Z,5.90
2019-04-01T14:59:35.596Z,7.97
2019-04-01T15:02:09.222Z,5.80
2019-04-01T15:04:42.880Z,5.07
2019-04-01T15:07:18.486Z,5.13
2019-04-01T15:09:52.362Z,5.03
2019-04-01T15:12:26.060Z,8.47
2019-04-01T15:14:59.678Z,4.33
2019-04-01T15:17:37.214Z,5.80
2019-04-01T15:20:11.372Z,4.30
2019-04-01T15:22:45.080Z,3.83
2019-04-01T15:25:18.800Z,5.20
2019-04-01T15:27:52.470Z,4.77
2019-04-01T15:30:27.375Z,6.37
2019-04-01T15:33:01.409Z,3.40
2019-04-01T15:35:36.007Z,9.23
2019-04-01T15:38:09.790Z,3.40
2019-04-01T15:40:43.607Z,6.07
2019-04-01T15:43:17.266Z,3.17
2019-04-01T15:45:51.051Z,4.27
2019-04-01T15:48:24.749Z,3.73
2019-04-01T15:50:58.727Z,9.97
2019-04-01T15:53:32.646Z,6.07
2019-04-01T15:56:06.655Z,1.37
2019-04-01T15:58:40.318Z,1.13
2019-04-01T16:01:14.062Z,0.87
2019-04-01T16:03:47.967Z,2.10
2019-04-01T16:06:21.810Z,1.63
2019-04-01T16:08:57.189Z,0.77
2019-04-01T16:11:30.861Z,0.30
2019-04-01T16:14:05.024Z,2.03
2019-04-01T16:16:38.679Z,2.20
2019-04-01T16:19:12.302Z,1.50
2019-04-01T16:21:46.184Z,2.53
2019-04-01T16:24:19.987Z,2.67
2019-04-01T16:26:53.645Z,2.50
2019-04-01T16:29:27.313Z,2.33
2019-04-01T16:32:00.983Z,0.53
2019-04-01T16:34:34.875Z,3.30
2019-04-01T16:37:09.064Z,2.10
2019-04-01T16:39:42.835Z,2.70
2019-04-01T16:42:16.759Z,4.80
2019-04-01T16:44:53.871Z,4.30
2019-04-01T16:47:25.854Z,4.07
2019-04-01T16:49:59.594Z,2.03
2019-04-01T16:52:33.286Z,1.27
2019-04-01T16:55:08.723Z,6.73
2019-04-01T16:57:42.726Z,1.80
2019-04-01T17:00:18.834Z,6.10
2019-04-01T17:06:29.657Z,2.10
2019-04-01T17:09:05.462Z,2.27
2019-04-01T17:11:39.192Z,5.23
2019-04-01T17:14:12.892Z,2.50
2019-04-01T17:16:46.595Z,7.27
2019-04-01T17:22:57.659Z,2.10
2019-04-01T17:25:31.342Z,3.20
2019-04-01T17:28:05.541Z,5.17
2019-04-01T17:30:39.111Z,3.17
2019-04-01T17:33:12.835Z,2.57
2019-04-01T17:35:46.427Z,4.00
2019-04-01T17:38:20.041Z,7.67
2019-04-01T17:40:53.715Z,5.70
2019-04-01T17:43:27.499Z,7.07
2019-04-01T17:46:01.657Z,5.93
2019-04-01T17:48:35.251Z,5.77
2019-04-01T17:51:08.966Z,7.43
2019-04-01T17:53:42.751Z,6.70
2019-04-01T17:56:18.405Z,5.23
2019-04-01T17:58:52.168Z,8.53
2019-04-01T18:01:25.892Z,9.97
2019-04-01T18:03:59.512Z,5.03
2019-04-01T18:06:33.110Z,7.67
2019-04-01T18:09:10.408Z,8.30
2019-04-01T18:11:44.188Z,6.00
2019-04-01T18:14:19.095Z,5.77
2019-04-01T18:16:52.851Z,8.30
2019-04-01T18:19:26.507Z,5.97
2019-04-01T18:22:00.503Z,6.47
2019-04-01T18:24:34.255Z,8.20
2019-04-01T18:27:07.996Z,8.53
2019-04-01T18:29:41.674Z,9.73
2019-04-01T18:32:15.354Z,10.93
2019-04-01T18:34:49.018Z,6.07
2019-04-01T18:37:22.796Z,10.17
2019-04-01T18:39:57.295Z,13.70
2019-04-01T18:42:31.307Z,14.40
2019-04-01T18:45:06.902Z,12.63
2019-04-01T18:47:40.625Z,17.57
2019-04-01T18:50:14.668Z,15.53
2019-04-01T18:52:48.556Z,13.27
2019-04-01T18:55:22.301Z,7.83
2019-04-01T18:57:56.498Z,10.30
2019-04-01T19:00:30.858Z,6.93
2019-04-01T19:03:04.670Z,13.57
2019-04-01T19:05:38.968Z,8.07
2019-04-01T19:08:12.920Z,7.60
2019-04-01T19:10:46.587Z,6.60
2019-04-01T19:13:20.202Z,10.97
2019-04-01T19:15:54.714Z,7.10
2019-04-01T19:18:29.022Z,6.57
2019-04-01T19:21:04.887Z,5.73
2019-04-01T19:23:38.038Z,8.43
2019-04-01T19:26:11.760Z,7.67
2019-04-01T19:28:47.077Z,9.07
2019-04-01T19:31:20.912Z,14.90
2019-04-01T19:37:33.716Z,8.97
2019-04-01T19:40:08.440Z,7.07
2019-04-01T19:42:42.135Z,10.20
2019-04-01T19:45:16.352Z,12.77
2019-04-01T19:47:50.035Z,9.63
2019-04-01T19:54:00.946Z,7.00
2019-04-01T19:56:34.601Z,6.73
2019-04-01T19:59:08.370Z,6.37
2019-04-01T20:01:42.076Z,9.37
2019-04-01T20:04:15.804Z,6.97
2019-04-01T20:06:49.554Z,6.83
2019-04-01T20:09:23.338Z,8.47
2019-04-01T20:11:58.381Z,10.10
2019-04-01T20:14:32.151Z,9.77
2019-04-01T20:17:07.043Z,12.10
2019-04-01T20:19:40.683Z,15.53
2019-04-01T20:22:14.319Z,18.53
2019-04-01T20:24:48.293Z,16.70
2019-04-01T20:27:22.034Z,17.90
2019-04-01T20:29:55.926Z,17.90
2019-04-01T20:32:30.256Z,24.37
2019-04-01T20:35:05.638Z,21.47
2019-04-01T20:37:39.511Z,22.77
2019-04-01T20:40:13.718Z,28.03
2019-04-01T20:42:47.393Z,33.87
2019-04-01T20:45:21.182Z,36.17
2019-04-01T20:47:54.835Z,33.57
2019-04-01T20:50:31.772Z,32.77
2019-04-01T20:53:05.506Z,38.00
2019-04-01T20:55:48.144Z,31.57
2019-04-01T20:58:14.569Z,30.63
2019-04-01T21:00:50.499Z,23.30
2019-04-01T21:03:24.081Z,24.33
2019-04-01T21:05:57.880Z,30.40
2019-04-01T21:08:31.470Z,33.00
2019-04-01T21:11:05.420Z,38.13
2019-04-01T21:13:39.964Z,40.77
2019-04-01T21:16:13.755Z,38.80
2019-04-01T21:18:48.245Z,41.80
2019-04-01T21:21:23.186Z,43.07
2019-04-01T21:23:59.566Z,40.80
2019-04-01T21:26:31.988Z,45.07
2019-04-01T21:29:06.508Z,43.47
2019-04-01T21:31:40.310Z,49.13
2019-04-01T21:34:14.159Z,43.93
2019-04-01T21:36:47.893Z,44.70
2019-04-01T21:39:21.662Z,43.27
2019-04-01T21:41:55.387Z,46.47
2019-04-01T21:44:29.321Z,43.87
2019-04-01T21:47:02.946Z,40.83
2019-04-01T21:53:22.647Z,41.00
2019-04-01T21:55:56.701Z,43.73
2019-04-01T21:58:30.440Z,44.83
2019-04-01T22:01:04.442Z,43.80
2019-04-01T22:03:38.457Z,35.53
2019-04-01T22:10:00.001Z,36.20
2019-04-01T22:12:34.094Z,38.70
2019-04-01T22:15:08.312Z,33.70
2019-04-01T22:17:42.339Z,29.87
2019-04-01T22:20:16.250Z,27.73
2019-04-01T22:22:50.088Z,25.30
2019-04-01T22:25:23.970Z,23.90
2019-04-01T22:27:57.826Z,25.13
2019-04-01T22:30:31.967Z,25.30
2019-04-01T22:33:06.010Z,25.10
2019-04-01T22:35:41.978Z,25.23
2019-04-01T22:38:25.133Z,28.97
2019-04-01T22:40:51.587Z,29.27
2019-04-01T22:43:25.809Z,31.00
2019-04-01T22:45:59.850Z,27.33
2019-04-01T22:48:33.857Z,28.67
2019-04-01T22:51:08.670Z,27.30
2019-04-01T22:53:44.130Z,25.13
2019-04-01T22:56:18.240Z,27.60
2019-04-01T22:58:52.253Z,26.50
2019-04-01T23:01:26.171Z,23.57
2019-04-01T23:04:00.076Z,23.97
2019-04-01T23:06:34.363Z,25.23
2019-04-01T23:09:09.322Z,26.40
2019-04-01T23:11:43.336Z,23.73
2019-04-01T23:14:17.338Z,23.17
2019-04-01T23:16:51.665Z,23.60
2019-04-01T23:19:25.674Z,21.57
2019-04-01T23:22:00.246Z,22.70
2019-04-01T23:24:34.568Z,29.20
2019-04-01T23:27:08.520Z,20.83
2019-04-01T23:29:42.442Z,21.13
2019-04-01T23:32:16.752Z,20.93
2019-04-01T23:34:50.797Z,23.23
2019-04-01T23:37:24.753Z,20.30
2019-04-01T23:39:58.680Z,24.93
2019-04-01T23:42:32.691Z,23.33
2019-04-01T23:45:07.715Z,21.10
2019-04-01T23:47:41.744Z,25.30
2019-04-01T23:53:52.555Z,21.60
2019-04-01T23:56:27.300Z,22.83
2019-04-01T23:59:01.787Z,19.43
